Wild Boar Gully, Santa Catalina Island Weather observations

Data are for 10 minute period ending at time listed.
 Day   Time   Solar   Ave.   Ave.  Ave.  Vector    Max.   Stn.    Total
  of    of     Rad.   Air    Rel.  Wind   Wind     Wind   Baro.  Precip.
Year   Day            Temp.  Hum.  Speed  Dir.     Gust   Pres.         
2015   (PST)   W/m2    F      %     mph   deg.      mph    mb.     in.  
------------------------------------------------------------------------
  28    0:40    0.0    61   64.7     7     36.3    11.3    999.0   0.00  
  28    0:50    0.0    62   64.1     8     33.6    10.8    999.0   0.00  
  28    1:00    0.0    62   63.4     7     34.0    10.2    999.0   0.00  
  28    1:10    0.0    62   61.6     7     35.1    10.2    999.0   0.00  
  28    1:20    0.0    62   59.1     2     52.0     3.6    999.0   0.00  
  28    1:30    0.0    61   59.9     2     40.3     3.6    999.0   0.00  
  28    1:40    0.0    60   59.9     2     41.4     3.6    999.0   0.00  
  28    1:50    0.0    60   59.7     3     40.0     5.4    999.0   0.00  
  28    2:00    0.0    61   59.3     4     49.8     7.2    999.0   0.00  
  28    2:10    0.0    61   59.1     6     33.8     9.0    999.0   0.00  
  28    2:20    0.0    62   58.2     8     29.2     9.6    999.0   0.00  
  28    2:30    0.0    62   57.5     7     26.1     9.6    999.0   0.00  
  28    2:40    0.0    62   57.0     8     30.6     9.6    999.0   0.00  
  28    2:50    0.0    62   57.8     7     37.5     8.4    999.0   0.00  
  28    3:00    0.0    62   57.7     8     35.2    10.2    999.0   0.00  
  28    3:10    0.0    62   57.7     7     27.6    10.8    999.0   0.00  
  28    3:20    0.0    63   57.6     7     28.7    10.2    999.0   0.00  
  28    3:30    0.0    63   57.9     8     35.1    11.3    999.0   0.00  
  28    3:40    0.0    62   58.3     8     32.6    10.2    999.0   0.00  
  28    3:50    0.0    62   58.3     7     35.0    11.3    999.0   0.00  
  28    4:00    0.0    63   57.7     8     31.5    10.2    999.0   0.00  
  28    4:10    0.0    63   57.6     8     28.9    11.3    999.0   0.00  
  28    4:20    0.0    63   57.9     9     22.1    12.5    999.0   0.00  
  28    4:30    0.0    63   57.7    10     13.0    13.1    999.0   0.00  
  28    4:40    0.0    63   57.6     9     17.0    13.1    999.0   0.00  
  28    4:50    0.0    63   57.6     9     34.4    12.5    999.0   0.00  
  28    5:00    0.0    63   57.7     9     37.3    12.5    999.0   0.00  
  28    5:10    0.0    63   57.8     9     34.5    11.9    999.0   0.00  
  28    5:20    0.0    64   54.9     4     61.2     7.2    999.0   0.00  
  28    5:30    0.0    64   55.1     6     25.1    12.5    999.0   0.00  
  28    5:40    0.0    64   56.5     9     23.5    12.5    999.0   0.00  
  28    5:50    0.0    64   54.5     9     40.8    11.9    999.0   0.00  
  28    6:00    0.0    64   54.1    10     36.2    13.7    999.0   0.00  
  28    6:10    0.0    64   55.1     8     29.1    11.3    999.0   0.00  
  28    6:20    0.0    64   54.4    12     38.9    14.9    999.0   0.00  
  28    6:30    0.0    64   54.2    11     38.0    14.9    999.0   0.00  
  28    6:40    0.0    64   54.2     6     32.8    10.8    999.0   0.00  
  28    6:50    2.0    64   54.4     3    124.5     6.0    999.0   0.00  
  28    7:00    3.0    64   55.4     2    109.1     3.6    999.0   0.00  
  28    7:10    7.0    64   55.4     1     75.8     1.8    999.0   0.00  
  28    7:20   19.0    64   55.7     1     55.6     1.8    999.0   0.00  
  28    7:30   36.0    64   56.0     2     53.0     2.4    999.0   0.00  
  28    7:40   55.0    65   55.0     1    108.2     4.2    999.0   0.00  
  28    7:50   98.0    66   53.9     1    148.3     1.8    999.0   0.00  
  28    8:00  123.0    67   53.6     2    210.7     4.2    999.0   0.00  
  28    8:10  147.0    67   53.4     1    321.4     1.2    999.0   0.00  
  28    8:20  174.0    69   51.8     1    103.1     1.2    999.0   0.00  
  28    8:30  203.0    71   50.9     1    199.4     1.8    999.0   0.00  
  28    8:40  252.0    70   51.3     2    210.2     3.6    999.0   0.00  
  28    8:50  260.0    69   51.9     2    220.1     3.0    999.0   0.00  
  28    9:00  274.0    70   51.8     1    181.8     2.4    999.0   0.00  
  28    9:10  299.0    72   51.5     2    138.4     3.6    999.0   0.00  
  28    9:20  243.0    70   52.5     2    164.7     4.2    999.0   0.00  
  28    9:30  210.0    67   55.9     2    240.9     4.2    999.0   0.00  
  28    9:40  223.0    70   55.3     1    113.0     3.6    999.0   0.00  
  28    9:50  260.0    69   55.7     8     15.2    12.5    999.0   0.00  
  28   10:00  288.0    69   55.3    10     28.0    14.3    999.0   0.00  
  28   10:10  304.0    70   54.2     8     17.6    11.3    999.0   0.00  
  28   10:20  321.0    70   52.7     9     22.6    13.1    999.0   0.00  
  28   10:30  362.0    70   52.5     7     51.9    13.7    999.0   0.00  
  28   10:40  362.0    70   56.1     4    145.0     6.6    999.0   0.00  
  28   10:50  365.0    72   56.1     2    159.9     3.6    999.0   0.00  
  28   11:00  348.0    71   57.8     3    242.3     6.0    999.0   0.00  
  28   11:10  364.0    70   57.2     3    225.7     6.0    999.0   0.00  
  28   11:20  390.0    70   56.1     4    232.9     6.0    999.0   0.00  
  28   11:30  358.0    69   57.2     5    236.7     7.2    999.0   0.00  
  28   11:40  335.0    68   56.4     6    234.4     7.8    999.0   0.00  
  28   11:50  318.0    69   55.2     3    212.9     4.8    999.0   0.00  
  28   12:00  312.0    70   56.2     1    219.0     3.0    999.0   0.00  
  28   12:10  316.0    70   57.0     3    144.8     5.4    999.0   0.00  
  28   12:20  309.0    70   55.2     2    179.6     3.6    999.0   0.00  
  28   12:30  337.0    70   55.9     4    236.7     6.6    999.0   0.00  
  28   12:40  351.0    69   56.8     4    241.5     5.4    999.0   0.00  
  28   12:50  376.0    69   55.9     4    239.4     5.4    999.0   0.00  
  28   13:00  380.0    70   55.6     3    222.3     6.6    999.0   0.00  
  28   13:10  347.0    68   58.2     3    228.2     6.0    999.0   0.00  
  28   13:20  315.0    70   56.8     2    231.8     4.8    999.0   0.00  
  28   13:30  250.0    69   58.9     3    227.1     4.8    999.0   0.00  
  28   13:40  223.0    68   60.0     3    238.3     4.8    999.0   0.00  
  28   13:50  192.0    69   60.0     1    239.4     3.0    999.0   0.00  
  28   14:00  170.0    69   59.6     3    256.1     6.0    999.0   0.00  
  28   14:10  157.0    68   60.9     4    261.2     6.0    999.0   0.00  
  28   14:20  149.0    69   60.0     4    267.5     7.2    999.0   0.00  
  28   14:30  149.0    70   53.2     4    307.6     6.6    999.0   0.00  
  28   14:40  139.0    71   49.2     6    338.2     9.0    999.0   0.00  
  28   14:50  132.0    71   48.6     8    340.3    11.3    999.0   0.00  
  28   15:00  119.0    70   48.2     9    347.2    11.9    999.0   0.00  
  28   15:10  112.0    70   47.5     9    345.0    11.9    999.0   0.00  
  28   15:20  101.0    70   48.0     8    359.0    11.9    999.0   0.00  
  28   15:30   84.0    70   48.7     8     19.3    13.1    999.0   0.00  
  28   15:40   70.0    70   48.0     8     30.9    13.1    999.0   0.00  
  28   15:50   57.0    70   48.0     7     28.4    10.2    999.0   0.00  
  28   16:00   53.0    70   47.6     6     23.2    10.2    999.0   0.00  
  28   16:10   56.0    70   48.0     6     25.0     9.0    999.0   0.00  
  28   16:20   64.0    70   48.2     5     58.6     7.8    999.0   0.00  
  28   16:30   49.0    70   50.2     4    110.1     4.8    999.0   0.00  
  28   16:40   34.0    69   51.4     5     81.8     7.2    999.0   0.00  
  28   16:50   26.0    69   51.9     6     67.8     7.2    999.0   0.00  
  28   17:00   22.0    69   49.3     5     51.0     6.6    999.0   0.00  
  28   17:10   19.0    69   49.4     2     71.9     4.2    999.0   0.00  
  28   17:20    6.0    69   52.6     2    117.6     4.2    999.0   0.00  
  28   17:30    2.0    68   55.2     2    352.7     3.6    999.0   0.00  
  28   17:40    1.0    66   57.0     2     89.5     3.6    999.0   0.00  
  28   17:50    0.0    66   54.9     2     56.8     4.2    999.0   0.00  
  28   18:00    0.0    66   51.0     1     23.5     3.0    999.0   0.00  
  28   18:10    0.0    66   51.0     1     20.9     3.0    999.0   0.00  
  28   18:20    0.0    66   50.5     3     37.6     7.8    999.0   0.00  
  28   18:30    0.0    66   51.8     7     35.2    11.9    999.0   0.00  
  28   18:40    0.0    66   53.3    10     34.2    11.9    999.0   0.00  
  28   18:50    0.0    66   52.8    10     37.5    13.1    999.0   0.00  
  28   19:00    0.0    66   54.2    10     36.4    13.7    999.0   0.00  
  28   19:10    0.0    66   52.6    12     33.6    14.9    999.0   0.00  
  28   19:20    0.0    66   50.9    10     30.5    13.7    999.0   0.00  
  28   19:30    0.0    67   49.0    10     30.0    13.1    999.0   0.00  
  28   19:40    0.0    68   46.4     9     34.6    13.1    999.0   0.00  
  28   19:50    0.0    69   43.6     4     83.9     7.8    999.0   0.00  
  28   20:00    0.0    69   42.3     4     89.9     6.6    999.0   0.00  
  28   20:10    0.0    68   43.7     5     84.6     7.2    999.0   0.00  
  28   20:20    0.0    68   43.6     2     89.2     4.8    999.0   0.00  
  28   20:30    0.0    68   42.7     1     45.3     3.0    999.0   0.00  
  28   20:40    0.0    68   42.2     1     84.5     1.8    999.0   0.00  
  28   20:50    0.0    68   42.8     2     56.3     3.0    999.0   0.00  
  28   21:00    0.0    67   44.1     3     44.5     6.6    999.0   0.00  
  28   21:10    0.0    68   44.3     8     27.7    11.9    999.0   0.00  
  28   21:20    0.0    68   44.2    10     32.1    11.9    999.0   0.00  
  28   21:30    0.0    68   44.0    10     32.4    12.5    999.0   0.00  
  28   21:40    0.0    68   43.6    10     29.7    11.3    999.0   0.00  
  28   21:50    0.0    69   42.9     6     54.7    10.2    999.0   0.00  
  28   22:00    0.0    69   42.7     4     97.6     5.4    999.0   0.00  
  28   22:10    0.0    69   43.0     2     65.2     4.8    999.0   0.00  
  28   22:20    0.0    70   42.7     4     89.1     7.2    999.0   0.00  
  28   22:30    0.0    69   43.7     6     80.9     9.0    999.0   0.00  
  28   22:40    0.0    69   45.5     9     39.0    13.1    999.0   0.00  
  28   22:50    0.0    70   46.3    11     37.7    14.3    999.0   0.00  
  28   23:00    0.0    70   46.0     6     94.5    10.2    999.0   0.00  
  28   23:10    0.0    69   46.0     6     71.7     8.4    999.0   0.00  
  28   23:20    0.0    68   47.4     5     78.1     6.6    999.0   0.00  
  28   23:30    0.0    68   47.2     5     71.4     6.6    999.0   0.00  
  28   23:40    0.0    68   48.1     3     85.6     4.8    999.0   0.00  
  28   23:50    0.0    68   47.3     1     26.7     4.8    999.0   0.00  
  29    0:00    0.0    69   44.8     3    171.5     5.4    999.0   0.00  
  29    0:10    0.0    68   46.5     3     81.9     4.8    999.0   0.00  
  29    0:20    0.0    68   46.1     4    140.2     8.4    999.0   0.00  
  29    0:30    0.0    67   50.7     2     66.0     4.8    999.0   0.00  

Return to Wild Boar Gully graphs page.


Western Regional Climate Center,wrcc@dri.edu